createdAt,value
2019-02-27T00:01:16.726Z,25.13
2019-02-27T00:03:44.371Z,24.73
2019-02-27T00:06:12.882Z,24.83
2019-02-27T00:08:42.786Z,23.13
2019-02-27T00:11:12.359Z,25.67
2019-02-27T00:13:41.210Z,26.17
2019-02-27T00:16:11.040Z,26.20
2019-02-27T00:18:39.615Z,25.70
2019-02-27T00:21:10.515Z,25.67
2019-02-27T00:23:38.137Z,25.33
2019-02-27T00:26:08.784Z,25.53
2019-02-27T00:28:36.542Z,26.17
2019-02-27T00:31:04.987Z,24.93
2019-02-27T00:33:33.328Z,26.47
2019-02-27T00:36:01.658Z,24.70
2019-02-27T00:38:30.014Z,26.90
2019-02-27T00:40:58.367Z,25.70
2019-02-27T00:43:28.437Z,25.73
2019-02-27T00:45:56.819Z,26.00
2019-02-27T00:48:26.258Z,26.30
2019-02-27T00:50:55.267Z,25.77
2019-02-27T00:53:24.513Z,26.10
2019-02-27T00:55:53.647Z,25.37
2019-02-27T00:58:22.099Z,26.53
2019-02-27T01:00:50.583Z,24.30
2019-02-27T01:03:18.935Z,26.30
2019-02-27T01:05:47.265Z,23.13
2019-02-27T01:08:15.594Z,25.00
2019-02-27T01:10:45.298Z,26.60
2019-02-27T01:13:14.007Z,23.73
2019-02-27T01:15:44.662Z,24.20
2019-02-27T01:18:12.389Z,23.10
2019-02-27T01:20:45.554Z,23.90
2019-02-27T01:23:11.156Z,23.33
2019-02-27T01:25:40.213Z,23.67
2019-02-27T01:28:10.844Z,23.23
2019-02-27T01:30:38.510Z,23.77
2019-02-27T01:33:06.852Z,23.10
2019-02-27T01:35:35.279Z,22.30
2019-02-27T01:38:05.390Z,23.70
2019-02-27T01:40:33.619Z,24.03
2019-02-27T01:43:05.281Z,23.47
2019-02-27T01:45:31.962Z,24.07
2019-02-27T01:48:00.319Z,24.13
2019-02-27T01:50:32.887Z,22.67
2019-02-27T01:53:01.356Z,24.30
2019-02-27T01:55:29.780Z,23.40
2019-02-27T01:57:58.090Z,23.43
2019-02-27T02:00:26.574Z,23.73
2019-02-27T02:02:55.114Z,24.33
2019-02-27T02:05:26.141Z,23.47
2019-02-27T02:07:53.747Z,24.33
2019-02-27T02:10:22.089Z,23.20
2019-02-27T02:12:52.282Z,23.03
2019-02-27T02:15:28.822Z,22.87
2019-02-27T02:18:15.047Z,23.13
2019-02-27T02:21:09.111Z,22.27
2019-02-27T02:23:50.147Z,22.50
2019-02-27T02:26:22.418Z,23.53
2019-02-27T02:29:02.469Z,22.53
2019-02-27T02:31:41.113Z,22.93
2019-02-27T02:34:41.023Z,23.60
2019-02-27T02:37:29.130Z,23.17
2019-02-27T02:40:16.460Z,23.47
2019-02-27T02:43:09.803Z,23.93
2019-02-27T02:46:08.785Z,24.53
2019-02-27T02:48:49.244Z,22.87
2019-02-27T02:51:42.495Z,22.73
2019-02-27T02:54:15.868Z,22.67
2019-02-27T02:56:51.185Z,23.70
2019-02-27T02:59:37.286Z,22.67
2019-02-27T03:02:24.714Z,22.77
2019-02-27T03:05:03.587Z,24.20
2019-02-27T03:08:09.264Z,23.00
2019-02-27T03:10:54.163Z,22.83
2019-02-27T03:13:32.225Z,22.93
2019-02-27T03:16:05.944Z,24.10
2019-02-27T03:18:56.351Z,22.70
2019-02-27T03:21:49.772Z,24.50
2019-02-27T03:24:29.879Z,23.93
2019-02-27T03:27:08.136Z,26.03
2019-02-27T03:29:55.563Z,24.50
2019-02-27T03:32:29.401Z,25.27
2019-02-27T03:35:28.018Z,26.73
2019-02-27T03:37:56.062Z,24.53
2019-02-27T03:40:48.126Z,25.93
2019-02-27T03:43:35.080Z,26.00
2019-02-27T03:46:31.364Z,25.03
2019-02-27T03:49:12.400Z,24.57
2019-02-27T03:52:05.742Z,25.20
2019-02-27T03:54:37.591Z,25.17
2019-02-27T03:57:28.140Z,25.47
2019-02-27T04:00:21.508Z,26.07
2019-02-27T04:03:01.893Z,23.13
2019-02-27T04:05:52.200Z,25.40
2019-02-27T04:08:43.481Z,25.00
2019-02-27T04:11:09.475Z,26.33
2019-02-27T04:13:37.922Z,27.23
2019-02-27T04:16:06.348Z,24.60
2019-02-27T04:18:33.716Z,26.63
2019-02-27T04:21:02.082Z,26.03
2019-02-27T04:23:30.440Z,27.07
2019-02-27T04:25:58.840Z,27.10
2019-02-27T04:28:29.675Z,24.90
2019-02-27T04:30:57.095Z,26.13
2019-02-27T04:33:25.426Z,25.20
2019-02-27T04:35:53.749Z,25.87
2019-02-27T04:38:22.059Z,24.67
2019-02-27T04:40:50.396Z,23.47
2019-02-27T04:43:18.727Z,24.63
2019-02-27T04:45:47.602Z,23.43
2019-02-27T04:48:16.183Z,23.17
2019-02-27T04:50:44.812Z,23.00
2019-02-27T04:53:13.274Z,23.63
2019-02-27T04:55:41.712Z,23.63
2019-02-27T04:58:10.026Z,23.27
2019-02-27T05:00:38.363Z,23.23
2019-02-27T05:03:06.721Z,22.27
2019-02-27T05:05:35.142Z,24.03
2019-02-27T05:08:03.479Z,22.73
2019-02-27T05:10:33.771Z,23.30
2019-02-27T05:13:01.831Z,22.67
2019-02-27T05:15:30.150Z,22.80
2019-02-27T05:17:58.888Z,24.40
2019-02-27T05:20:27.335Z,22.63
2019-02-27T05:23:00.076Z,23.63
2019-02-27T05:25:25.640Z,23.10
2019-02-27T05:27:54.023Z,23.13
2019-02-27T05:30:22.371Z,22.73
2019-02-27T05:32:50.699Z,23.73
2019-02-27T05:35:23.323Z,26.13
2019-02-27T05:37:49.106Z,23.90
2019-02-27T05:40:17.431Z,23.30
2019-02-27T05:42:45.770Z,22.40
2019-02-27T05:45:14.111Z,21.90
2019-02-27T05:47:45.670Z,21.83
2019-02-27T05:50:13.291Z,22.13
2019-02-27T05:52:41.640Z,22.43
2019-02-27T05:55:10.112Z,23.30
2019-02-27T05:57:38.487Z,21.67
2019-02-27T06:00:08.834Z,23.23
2019-02-27T06:02:37.167Z,22.90
2019-02-27T06:05:05.729Z,22.83
2019-02-27T06:07:34.054Z,25.40
2019-02-27T06:10:02.480Z,22.63
2019-02-27T06:12:31.058Z,24.93
2019-02-27T06:14:59.400Z,24.33
2019-02-27T06:17:27.818Z,24.40
2019-02-27T06:19:56.123Z,26.17
2019-02-27T06:22:27.346Z,27.47
2019-02-27T06:24:54.470Z,25.63
2019-02-27T06:27:22.950Z,26.90
2019-02-27T06:29:51.315Z,25.50
2019-02-27T06:32:19.685Z,26.10
2019-02-27T06:34:48.019Z,26.40
2019-02-27T06:37:16.375Z,26.90
2019-02-27T06:39:44.710Z,26.90
2019-02-27T06:42:13.154Z,26.97
2019-02-27T06:44:41.513Z,28.77
2019-02-27T06:47:09.854Z,25.90
2019-02-27T06:49:38.195Z,27.00
2019-02-27T06:52:09.012Z,26.03
2019-02-27T06:54:37.825Z,26.50
2019-02-27T06:57:07.813Z,26.63
2019-02-27T06:59:36.578Z,27.03
2019-02-27T07:02:05.018Z,27.53
2019-02-27T07:04:33.355Z,27.10
2019-02-27T07:07:01.711Z,25.77
2019-02-27T07:09:30.037Z,25.93
2019-02-27T07:11:58.374Z,27.83
2019-02-27T07:14:26.851Z,26.53
2019-02-27T07:16:57.367Z,26.77
2019-02-27T07:19:26.198Z,24.43
2019-02-27T07:21:54.847Z,27.47
2019-02-27T07:24:23.852Z,26.10
2019-02-27T07:26:52.359Z,25.17
2019-02-27T07:29:21.905Z,24.83
2019-02-27T07:31:52.185Z,28.40
2019-02-27T07:34:20.753Z,27.93
2019-02-27T07:36:49.120Z,26.97
2019-02-27T07:39:17.456Z,27.23
2019-02-27T07:41:45.773Z,28.00
2019-02-27T07:44:14.123Z,27.47
2019-02-27T07:46:42.486Z,29.03
2019-02-27T07:49:10.818Z,28.00
2019-02-27T07:51:39.375Z,29.07
2019-02-27T07:54:07.724Z,28.93
2019-02-27T07:56:36.729Z,27.53
2019-02-27T07:59:05.098Z,29.30
2019-02-27T08:01:43.240Z,28.67
2019-02-27T08:04:04.495Z,29.83
2019-02-27T08:06:35.070Z,30.80
2019-02-27T08:09:03.254Z,30.23
2019-02-27T08:11:32.071Z,31.03
2019-02-27T08:14:03.342Z,31.53
2019-02-27T08:16:36.937Z,31.27
2019-02-27T08:19:05.262Z,29.37
2019-02-27T08:21:33.936Z,31.40
2019-02-27T08:24:06.704Z,30.20
2019-02-27T08:26:33.035Z,31.90
2019-02-27T08:29:01.967Z,31.50
2019-02-27T08:31:32.062Z,31.33
2019-02-27T08:34:00.718Z,31.73
2019-02-27T08:36:29.170Z,31.17
2019-02-27T08:38:57.574Z,31.80
2019-02-27T08:41:25.914Z,29.77
2019-02-27T08:43:54.242Z,31.50
2019-02-27T08:46:22.592Z,31.00
2019-02-27T08:48:51.034Z,31.13
2019-02-27T08:51:19.469Z,29.27
2019-02-27T08:53:47.805Z,38.37
2019-02-27T08:56:16.153Z,40.80
2019-02-27T08:58:44.484Z,31.93
2019-02-27T09:01:12.856Z,32.73
2019-02-27T09:03:41.209Z,30.27
2019-02-27T09:06:09.568Z,31.83
2019-02-27T09:08:37.927Z,31.83
2019-02-27T09:11:06.879Z,28.53
2019-02-27T09:13:35.481Z,29.77
2019-02-27T09:16:03.840Z,29.73
2019-02-27T09:18:33.425Z,29.73
2019-02-27T09:21:02.251Z,28.60
2019-02-27T09:23:30.580Z,28.37
2019-02-27T09:26:02.328Z,26.37
2019-02-27T09:28:28.870Z,28.87
2019-02-27T09:30:57.196Z,37.87
2019-02-27T09:33:25.547Z,35.57
2019-02-27T09:35:53.957Z,32.40
2019-02-27T09:38:24.354Z,29.30
2019-02-27T09:40:52.798Z,27.93
2019-02-27T09:43:21.131Z,26.03
2019-02-27T09:45:49.443Z,27.53
2019-02-27T09:48:19.284Z,24.67
2019-02-27T09:50:48.940Z,22.43
2019-02-27T09:53:17.688Z,21.60
2019-02-27T09:55:46.021Z,21.73
2019-02-27T09:58:14.448Z,22.97
2019-02-27T10:00:44.166Z,22.50
2019-02-27T10:03:12.600Z,22.63
2019-02-27T10:05:41.053Z,23.60
2019-02-27T10:08:09.952Z,22.53
2019-02-27T10:10:38.406Z,23.47
2019-02-27T10:13:06.922Z,23.33
2019-02-27T10:15:35.337Z,24.50
2019-02-27T10:18:03.929Z,24.07
2019-02-27T10:20:36.829Z,22.57
2019-02-27T10:23:02.278Z,22.93
2019-02-27T10:25:30.586Z,21.97
2019-02-27T10:28:03.378Z,23.03
2019-02-27T10:30:28.915Z,24.90
2019-02-27T10:32:57.350Z,23.53
2019-02-27T10:35:26.791Z,24.27
2019-02-27T10:37:55.917Z,23.47
2019-02-27T10:40:24.489Z,23.63
2019-02-27T10:42:52.939Z,24.30
2019-02-27T10:45:21.403Z,24.73
2019-02-27T10:47:49.764Z,24.40
2019-02-27T10:50:18.212Z,25.07
2019-02-27T10:52:46.550Z,24.40
2019-02-27T10:55:15.107Z,24.57
2019-02-27T10:57:43.524Z,25.10
2019-02-27T11:00:16.426Z,24.87
2019-02-27T11:02:45.145Z,23.93
2019-02-27T11:05:15.089Z,24.97
2019-02-27T11:07:46.526Z,24.20
2019-02-27T11:10:15.698Z,25.53
2019-02-27T11:12:44.158Z,25.03
2019-02-27T11:15:13.367Z,24.80
2019-02-27T11:17:41.703Z,25.70
2019-02-27T11:20:10.299Z,25.27
2019-02-27T11:22:38.719Z,25.13
2019-02-27T11:25:08.348Z,23.97
2019-02-27T11:27:38.935Z,23.93
2019-02-27T11:30:07.967Z,25.07
2019-02-27T11:32:36.296Z,23.20
2019-02-27T11:35:04.829Z,24.20
2019-02-27T11:37:33.186Z,24.33
2019-02-27T11:40:01.629Z,24.73
2019-02-27T11:42:32.022Z,23.90
2019-02-27T11:44:59.974Z,24.23
2019-02-27T11:47:28.291Z,23.03
2019-02-27T11:49:56.627Z,23.53
2019-02-27T11:52:27.893Z,24.03
2019-02-27T11:54:54.975Z,23.87
2019-02-27T11:57:23.421Z,23.93
2019-02-27T11:59:51.750Z,23.60
2019-02-27T12:02:28.616Z,21.73
2019-02-27T12:04:53.743Z,22.23
2019-02-27T12:07:20.095Z,22.80
2019-02-27T12:09:48.416Z,23.00
2019-02-27T12:12:16.767Z,21.00
2019-02-27T12:14:45.144Z,22.37
2019-02-27T12:17:13.514Z,21.77
2019-02-27T12:19:44.534Z,21.80
2019-02-27T12:22:11.824Z,21.80
2019-02-27T12:24:40.162Z,21.33
2019-02-27T12:27:13.738Z,20.60
2019-02-27T12:29:38.803Z,22.57
2019-02-27T12:32:07.239Z,21.07
2019-02-27T12:34:37.049Z,21.07
2019-02-27T12:37:05.606Z,21.33
2019-02-27T12:39:33.933Z,21.00
2019-02-27T12:42:04.158Z,20.77
2019-02-27T12:44:34.428Z,21.23
2019-02-27T12:47:05.563Z,20.47
2019-02-27T12:49:32.544Z,20.73
2019-02-27T12:52:00.967Z,20.60
2019-02-27T12:54:29.318Z,19.87
2019-02-27T12:56:57.641Z,19.80
2019-02-27T12:59:25.989Z,19.80
2019-02-27T13:01:54.315Z,18.30
2019-02-27T13:04:22.668Z,19.00
2019-02-27T13:06:51.009Z,19.47
2019-02-27T13:09:19.438Z,18.93
2019-02-27T13:11:47.792Z,15.70
2019-02-27T13:14:16.203Z,16.43
2019-02-27T13:16:46.391Z,14.70
2019-02-27T13:19:14.646Z,17.90
2019-02-27T13:21:42.957Z,18.37
2019-02-27T13:24:15.068Z,16.73
2019-02-27T13:26:41.326Z,17.27
2019-02-27T13:29:09.706Z,16.57
2019-02-27T13:31:38.041Z,15.80
2019-02-27T13:34:06.378Z,16.63
2019-02-27T13:36:34.794Z,16.20
2019-02-27T13:39:03.654Z,16.00
2019-02-27T13:41:31.970Z,15.33
2019-02-27T13:44:01.428Z,15.87
2019-02-27T13:46:30.271Z,15.67
2019-02-27T13:48:58.627Z,14.90
2019-02-27T13:51:26.975Z,15.20
2019-02-27T13:54:00.115Z,14.30
2019-02-27T13:56:27.546Z,14.60
2019-02-27T13:58:55.289Z,12.77
2019-02-27T14:01:25.216Z,13.90
2019-02-27T14:03:53.616Z,14.37
2019-02-27T14:06:21.994Z,13.83
2019-02-27T14:08:50.437Z,13.20
2019-02-27T14:11:18.771Z,13.87
2019-02-27T14:13:47.226Z,14.70
2019-02-27T14:16:15.565Z,14.83
2019-02-27T14:18:43.891Z,16.20
2019-02-27T14:21:12.355Z,14.07
2019-02-27T14:23:43.402Z,14.63
2019-02-27T14:26:11.759Z,14.87
2019-02-27T14:28:40.173Z,14.20
2019-02-27T14:31:09.519Z,14.43
2019-02-27T14:33:38.474Z,13.47
2019-02-27T14:36:08.498Z,14.33
2019-02-27T14:38:36.770Z,13.77
2019-02-27T14:41:05.096Z,12.77
2019-02-27T14:43:33.455Z,13.07
2019-02-27T14:46:01.822Z,13.00
2019-02-27T14:48:30.129Z,13.43
2019-02-27T14:50:58.547Z,12.10
2019-02-27T14:53:27.019Z,12.73
2019-02-27T14:55:55.352Z,14.80
2019-02-27T14:58:24.415Z,12.80
2019-02-27T15:00:53.687Z,13.03
2019-02-27T15:03:22.023Z,11.50
2019-02-27T15:05:52.887Z,12.17
2019-02-27T15:08:21.218Z,12.83
2019-02-27T15:10:49.551Z,11.17
2019-02-27T15:13:17.886Z,11.13
2019-02-27T15:15:46.227Z,10.53
2019-02-27T15:18:14.651Z,10.00
2019-02-27T15:20:43.083Z,10.37
2019-02-27T15:23:11.566Z,11.07
2019-02-27T15:25:43.196Z,10.60
2019-02-27T15:28:09.998Z,10.60
2019-02-27T15:30:38.331Z,9.30
2019-02-27T15:33:06.668Z,9.30
2019-02-27T15:35:35.120Z,8.23
2019-02-27T15:38:03.606Z,8.60
2019-02-27T15:40:32.034Z,9.07
2019-02-27T15:43:00.363Z,9.43
2019-02-27T15:45:28.821Z,8.87
2019-02-27T15:47:57.223Z,9.67
2019-02-27T15:50:25.697Z,9.13
2019-02-27T15:52:54.114Z,9.43
2019-02-27T15:55:22.562Z,9.20
2019-02-27T15:57:53.732Z,8.97
2019-02-27T16:00:21.811Z,8.70
2019-02-27T16:02:50.249Z,9.17
2019-02-27T16:05:18.703Z,8.60
2019-02-27T16:07:49.451Z,8.97
2019-02-27T16:10:18.431Z,9.17
2019-02-27T16:12:46.888Z,8.27
2019-02-27T16:15:16.938Z,8.97
2019-02-27T16:17:45.401Z,8.33
2019-02-27T16:20:16.106Z,8.27
2019-02-27T16:22:44.709Z,10.10
2019-02-27T16:25:18.323Z,9.27
2019-02-27T16:27:44.832Z,9.37
2019-02-27T16:30:15.432Z,10.17
2019-02-27T16:32:47.903Z,9.23
2019-02-27T16:35:13.820Z,11.50
2019-02-27T16:37:42.281Z,9.93
2019-02-27T16:40:11.335Z,10.83
2019-02-27T16:42:39.763Z,10.80
2019-02-27T16:45:09.480Z,10.97
2019-02-27T16:47:37.825Z,11.67
2019-02-27T16:50:06.639Z,10.27
2019-02-27T16:52:36.025Z,11.07
2019-02-27T16:55:04.503Z,11.30
2019-02-27T16:57:32.881Z,10.97
2019-02-27T17:00:01.875Z,10.23
2019-02-27T17:02:30.459Z,9.60
2019-02-27T17:04:58.858Z,10.87
2019-02-27T17:07:27.323Z,11.40
2019-02-27T17:09:55.651Z,10.37
2019-02-27T17:12:23.146Z,11.23
2019-02-27T17:14:51.470Z,10.33
2019-02-27T17:17:19.933Z,10.40
2019-02-27T17:19:48.556Z,10.20
2019-02-27T17:22:16.905Z,11.17
2019-02-27T17:24:45.218Z,11.13
2019-02-27T17:27:16.434Z,10.40
2019-02-27T17:29:43.900Z,9.40
2019-02-27T17:32:12.215Z,11.20
2019-02-27T17:34:40.563Z,10.53
2019-02-27T17:37:08.893Z,11.90
2019-02-27T17:39:37.254Z,12.27
2019-02-27T17:42:05.756Z,12.53
2019-02-27T17:44:35.300Z,13.37
2019-02-27T17:47:04.095Z,13.10
2019-02-27T17:49:32.427Z,12.90
2019-02-27T17:52:00.781Z,14.53
2019-02-27T17:54:31.314Z,13.67
2019-02-27T17:56:59.111Z,19.37
2019-02-27T17:59:27.511Z,15.47
2019-02-27T18:01:58.537Z,13.80
2019-02-27T18:04:25.898Z,13.83
2019-02-27T18:06:54.268Z,13.50
2019-02-27T18:09:23.429Z,13.80
2019-02-27T18:11:53.264Z,13.33
2019-02-27T18:14:21.907Z,12.70
2019-02-27T18:16:50.235Z,13.40
2019-02-27T18:19:18.583Z,13.87
2019-02-27T18:21:46.927Z,14.43
2019-02-27T18:24:15.269Z,13.57
2019-02-27T18:26:43.602Z,15.30
2019-02-27T18:29:11.937Z,14.93
2019-02-27T18:31:43.515Z,14.47
2019-02-27T18:34:11.968Z,14.97
2019-02-27T18:36:43.106Z,14.23
2019-02-27T18:39:10.603Z,14.60
2019-02-27T18:41:39.776Z,16.03
2019-02-27T18:44:08.365Z,14.90
2019-02-27T18:46:36.846Z,13.73
2019-02-27T18:49:05.435Z,15.13
2019-02-27T18:51:33.951Z,13.87
2019-02-27T18:54:02.439Z,13.73
2019-02-27T18:56:34.206Z,13.80
2019-02-27T18:59:01.554Z,15.87
2019-02-27T19:01:30.104Z,14.17
2019-02-27T19:04:01.230Z,14.30
2019-02-27T19:06:29.025Z,15.17
2019-02-27T19:08:59.501Z,14.30
2019-02-27T19:11:27.549Z,13.83
2019-02-27T19:13:55.917Z,14.03
2019-02-27T19:16:24.257Z,14.70
2019-02-27T19:18:52.726Z,21.93
2019-02-27T19:21:21.413Z,15.47
2019-02-27T19:23:52.642Z,14.77
2019-02-27T19:26:20.403Z,14.87
2019-02-27T19:28:49.082Z,15.13
2019-02-27T19:31:18.610Z,13.83
2019-02-27T19:33:47.271Z,14.97
2019-02-27T19:36:19.225Z,15.37
2019-02-27T19:38:47.533Z,13.93
2019-02-27T19:41:16.602Z,13.27
2019-02-27T19:43:45.381Z,14.37
2019-02-27T19:46:14.062Z,13.87
2019-02-27T19:48:42.806Z,14.57
2019-02-27T19:51:11.720Z,16.93
2019-02-27T19:53:42.660Z,15.03
2019-02-27T19:56:11.151Z,14.67
2019-02-27T19:58:40.070Z,14.60
2019-02-27T20:01:09.760Z,14.77
2019-02-27T20:03:39.286Z,14.07
2019-02-27T20:06:08.100Z,14.20
2019-02-27T20:08:36.852Z,15.43
2019-02-27T20:11:06.724Z,14.13
2019-02-27T20:13:35.613Z,15.60
2019-02-27T20:16:04.395Z,14.50
2019-02-27T20:18:33.104Z,14.60
2019-02-27T20:21:02.061Z,15.13
2019-02-27T20:23:31.055Z,14.17
2019-02-27T20:26:00.099Z,15.33
2019-02-27T20:28:29.027Z,15.57
2019-02-27T20:30:59.271Z,16.37
2019-02-27T20:33:27.953Z,14.77
2019-02-27T20:35:56.784Z,16.57
2019-02-27T20:38:25.686Z,17.50
2019-02-27T20:40:55.416Z,15.53
2019-02-27T20:43:29.121Z,15.60
2019-02-27T20:45:54.398Z,15.83
2019-02-27T20:48:23.071Z,15.77
2019-02-27T20:50:52.280Z,15.80
2019-02-27T20:53:21.819Z,16.50
2019-02-27T20:55:50.786Z,15.97
2019-02-27T20:58:22.085Z,16.20
2019-02-27T21:00:50.308Z,16.90
2019-02-27T21:03:18.997Z,15.73
2019-02-27T21:05:48.573Z,16.53
2019-02-27T21:08:19.007Z,15.90
2019-02-27T21:10:47.754Z,16.93
2019-02-27T21:13:16.940Z,15.90
2019-02-27T21:15:47.387Z,16.10
2019-02-27T21:18:16.099Z,15.77
2019-02-27T21:20:45.308Z,15.80
2019-02-27T21:23:15.210Z,16.93
2019-02-27T21:25:48.731Z,14.93
2019-02-27T21:28:20.655Z,16.37
2019-02-27T21:30:44.640Z,15.93
2019-02-27T21:33:13.381Z,16.03
2019-02-27T21:35:42.104Z,16.07
2019-02-27T21:38:10.822Z,14.97
2019-02-27T21:40:39.670Z,16.50
2019-02-27T21:43:08.370Z,15.60
2019-02-27T21:45:38.283Z,15.67
2019-02-27T21:48:07.223Z,16.50
2019-02-27T21:50:39.616Z,16.10
2019-02-27T21:53:06.220Z,15.03
2019-02-27T21:55:34.672Z,15.90
2019-02-27T21:58:03.049Z,15.77
2019-02-27T22:00:31.422Z,16.80
2019-02-27T22:03:04.058Z,15.67
2019-02-27T22:05:29.950Z,16.07
2019-02-27T22:07:58.427Z,15.87
2019-02-27T22:10:26.883Z,17.40
2019-02-27T22:12:55.306Z,18.47
2019-02-27T22:15:25.031Z,18.67
2019-02-27T22:17:53.376Z,17.93
2019-02-27T22:20:21.955Z,17.53
2019-02-27T22:22:50.450Z,19.20
2019-02-27T22:25:18.807Z,18.00
2019-02-27T22:27:47.162Z,17.60
2019-02-27T22:30:16.422Z,18.03
2019-02-27T22:32:47.408Z,17.47
2019-02-27T22:35:15.031Z,19.17
2019-02-27T22:37:43.519Z,18.30
2019-02-27T22:40:13.030Z,18.57
2019-02-27T22:42:41.569Z,18.30
2019-02-27T22:45:10.525Z,19.37
2019-02-27T22:47:39.001Z,19.87
2019-02-27T22:50:07.568Z,19.80
2019-02-27T22:52:36.035Z,18.90
2019-02-27T22:55:07.247Z,18.43
2019-02-27T22:57:34.615Z,17.80
2019-02-27T23:00:03.496Z,19.20
2019-02-27T23:02:31.986Z,18.90
2019-02-27T23:05:01.396Z,19.07
2019-02-27T23:07:30.578Z,23.73
2019-02-27T23:09:58.955Z,18.03
2019-02-27T23:12:27.315Z,19.23
2019-02-27T23:14:55.842Z,18.67
2019-02-27T23:17:24.178Z,17.17
2019-02-27T23:19:52.550Z,18.97
2019-02-27T23:22:20.979Z,18.70
2019-02-27T23:24:49.330Z,17.47
2019-02-27T23:27:17.696Z,17.23
2019-02-27T23:29:46.036Z,17.13
2019-02-27T23:32:14.520Z,18.67
2019-02-27T23:34:42.895Z,17.23
2019-02-27T23:37:11.265Z,18.77
2019-02-27T23:39:42.478Z,18.13
2019-02-27T23:42:09.606Z,18.33
2019-02-27T23:44:38.795Z,17.63
2019-02-27T23:47:07.964Z,16.80
2019-02-27T23:49:39.546Z,17.33
2019-02-27T23:52:06.386Z,16.63
2019-02-27T23:54:35.798Z,18.73
2019-02-27T23:57:05.128Z,16.63
2019-02-27T23:59:35.607Z,18.20
